Liberty Island — HPUY — position and weather

sailwx.info

Track history (hours):
 
Tides and Currents Weather Stations Pressure Air Temp Water Temp Dewpoint Dewpoint Depression Visibility Wind Speed Wind Dir Waves Ship Positions

Liberty Island

Last reported at 2015-Jan-28 00:30 UTC. Time now 2015-Jan-30 21:38 UTC.
Position N 36°29' W 000°34'.

Length 178 m; draft 9.3 m.

Type: Cargo ship. MMSI: 355886000.

Date/timePositionNaut miles runAvg speedWind from/ knotsBaromVisibWave heightAir tempDewpointWater temp
2015-Jan-28 00:30N 36°29' W 000°34'22612.6
2015-Jan-27 06:32N 36°00' W 005°12'1414.1
2015-Jan-27 05:33N 35°57' W 005°28'15112.3
2015-Jan-26 17:16N 35°50' W 008°35'1212.0
2015-Jan-26 16:17N 35°50' W 008°49'1112.0
2015-Jan-26 15:23N 35°49' W 009°02'1211.8
2015-Jan-26 14:22N 35°48' W 009°17'1011.6
2015-Jan-26 13:33N 35°48' W 009°29'1211.7
2015-Jan-26 12:29N 35°48' W 009°44'1111.6
2015-Jan-26 11:33N 35°47' W 009°57'1211.7
2015-Jan-26 10:33N 35°47' W 010°12'1111.4
2015-Jan-26 09:33N 35°46' W 010°26'1211.5
2015-Jan-26 08:33N 35°46' W 010°40'1111.3
2015-Jan-26 07:33N 35°45' W 010°54'1111.4
2015-Jan-26 06:33N 35°45' W 011°08'1111.3
2015-Jan-26 05:33N 35°45' W 011°22'1611.4
2015-Jan-26 04:09N 35°44' W 011°42'711.7
2015-Jan-26 03:33N 35°44' W 011°50'1211.7
2015-Jan-26 02:33N 35°43' W 012°05'1311.9
2015-Jan-26 01:29N 35°43' W 012°21'1111.7
2015-Jan-26 00:33N 35°42' W 012°34'1511.6
2015-Jan-25 23:15N 35°42' W 012°52'2011.5
2015-Jan-25 21:33N 35°41' W 013°17'2211.2
2015-Jan-25 19:33N 35°40' W 013°44'1311.3
2015-Jan-25 18:26N 35°39' W 013°60'44811.5
2015-Jan-24 03:18N 35°22' W 023°10'911.7
2015-Jan-24 02:31N 35°22' W 023°21'1311.9
2015-Jan-24 01:25N 35°22' W 023°37'3411.8
2015-Jan-23 22:33N 35°20' W 024°19'1111.4
2015-Jan-23 21:33N 35°20' W 024°33'2311.3
2015-Jan-23 19:29N 35°19' W 025°01'1111.3
2015-Jan-23 18:29N 35°18' W 025°15'2311.4
2015-Jan-23 16:31N 35°18' W 025°43'2711.8
2015-Jan-23 14:14N 35°16' W 026°16'  
Track history (hours):
 
Tides and Currents Weather Stations Pressure Air Temp Water Temp Dewpoint Dewpoint Depression Visibility Wind Speed Wind Dir Waves Ship Positions

Liberty Island

Last reported at 2015-Jan-28 00:30 UTC. Time now 2015-Jan-30 21:38 UTC.
Position N 36°29' W 000°34'.

Length 178 m; draft 9.3 m.

Type: Cargo ship. MMSI: 355886000.

Date/timePositionNaut miles runAvg speedWind from/ knotsBaromVisibWave heightAir tempDewpointWater temp
2015-Jan-28 00:30N 36°29' W 000°34'22612.6
2015-Jan-27 06:32N 36°00' W 005°12'1414.1
2015-Jan-27 05:33N 35°57' W 005°28'15112.3
2015-Jan-26 17:16N 35°50' W 008°35'1212.0
2015-Jan-26 16:17N 35°50' W 008°49'1112.0
2015-Jan-26 15:23N 35°49' W 009°02'1211.8
2015-Jan-26 14:22N 35°48' W 009°17'1011.6
2015-Jan-26 13:33N 35°48' W 009°29'1211.7
2015-Jan-26 12:29N 35°48' W 009°44'1111.6
2015-Jan-26 11:33N 35°47' W 009°57'1211.7
2015-Jan-26 10:33N 35°47' W 010°12'1111.4
2015-Jan-26 09:33N 35°46' W 010°26'1211.5
2015-Jan-26 08:33N 35°46' W 010°40'1111.3
2015-Jan-26 07:33N 35°45' W 010°54'1111.4
2015-Jan-26 06:33N 35°45' W 011°08'1111.3
2015-Jan-26 05:33N 35°45' W 011°22'1611.4
2015-Jan-26 04:09N 35°44' W 011°42'711.7
2015-Jan-26 03:33N 35°44' W 011°50'1211.7
2015-Jan-26 02:33N 35°43' W 012°05'1311.9
2015-Jan-26 01:29N 35°43' W 012°21'1111.7
2015-Jan-26 00:33N 35°42' W 012°34'1511.6
2015-Jan-25 23:15N 35°42' W 012°52'2011.5
2015-Jan-25 21:33N 35°41' W 013°17'2211.2
2015-Jan-25 19:33N 35°40' W 013°44'1311.3
2015-Jan-25 18:26N 35°39' W 013°60'44811.5
2015-Jan-24 03:18N 35°22' W 023°10'911.7
2015-Jan-24 02:31N 35°22' W 023°21'1311.9
2015-Jan-24 01:25N 35°22' W 023°37'3411.8
2015-Jan-23 22:33N 35°20' W 024°19'1111.4
2015-Jan-23 21:33N 35°20' W 024°33'2311.3
2015-Jan-23 19:29N 35°19' W 025°01'1111.3
2015-Jan-23 18:29N 35°18' W 025°15'2311.4
2015-Jan-23 16:31N 35°18' W 025°43'2711.8
2015-Jan-23 14:14N 35°16' W 026°16'  

Dump ship's entire track history